createdAt,value
2022-09-15T00:00:03.476Z,9.418221
2022-09-15T00:01:03.470Z,9.418274
2022-09-15T00:02:03.579Z,9.418299
2022-09-15T00:03:03.528Z,9.418281
2022-09-15T00:04:03.441Z,9.418303
2022-09-15T00:05:03.439Z,9.418298
2022-09-15T00:06:03.429Z,9.418289
2022-09-15T00:07:03.428Z,9.418243
2022-09-15T00:08:03.597Z,9.418227
2022-09-15T00:09:03.421Z,9.418242
2022-09-15T00:10:03.405Z,9.418250
2022-09-15T00:11:03.401Z,9.418271
2022-09-15T00:12:03.392Z,9.418257
2022-09-15T00:13:03.384Z,9.418307
2022-09-15T00:14:03.384Z,9.418292
2022-09-15T00:15:03.372Z,9.418236
2022-09-15T00:16:03.365Z,9.418181
2022-09-15T00:17:03.428Z,9.418156
2022-09-15T00:18:03.353Z,9.418197
2022-09-15T00:19:03.608Z,9.418280
2022-09-15T00:20:03.335Z,9.418233
2022-09-15T00:21:03.324Z,9.418224
2022-09-15T00:22:03.316Z,9.418230
2022-09-15T00:23:03.316Z,9.418292
2022-09-15T00:24:03.328Z,9.418262
2022-09-15T00:25:03.478Z,9.418351
2022-09-15T00:26:03.292Z,9.418326
2022-09-15T00:27:03.290Z,9.418355
2022-09-15T00:28:03.279Z,9.418304
2022-09-15T00:29:03.264Z,9.418354
2022-09-15T00:30:03.264Z,9.418308
2022-09-15T00:31:03.313Z,9.418286
2022-09-15T00:32:03.239Z,9.418326
2022-09-15T00:33:03.236Z,9.418311
2022-09-15T00:34:03.234Z,9.418261
2022-09-15T00:35:03.233Z,9.418370
2022-09-15T00:36:03.211Z,9.418324
2022-09-15T00:37:03.208Z,9.418351
2022-09-15T00:38:03.212Z,9.418319
2022-09-15T00:39:03.230Z,9.418283
2022-09-15T00:40:03.251Z,9.418315
2022-09-15T00:41:03.184Z,9.418285
2022-09-15T00:42:03.173Z,9.418302
2022-09-15T00:43:03.172Z,9.418360
2022-09-15T00:44:03.168Z,9.418390
2022-09-15T00:45:03.308Z,9.418390
2022-09-15T00:46:03.196Z,9.418303
2022-09-15T00:47:18.648Z,9.418263
2022-09-15T00:48:05.135Z,9.418336
2022-09-15T00:49:03.131Z,9.418378
2022-09-15T00:50:03.128Z,9.418359
2022-09-15T00:51:03.123Z,9.418357
2022-09-15T00:52:03.107Z,9.418327
2022-09-15T00:53:03.097Z,9.418363
2022-09-15T00:54:03.083Z,9.418366
2022-09-15T00:55:03.102Z,9.418350
2022-09-15T00:56:03.088Z,9.418366
2022-09-15T00:57:03.068Z,9.418347
2022-09-15T00:58:03.060Z,9.418341
2022-09-15T00:59:03.067Z,9.418321
2022-09-15T01:00:03.059Z,9.418349
2022-09-15T01:01:03.106Z,9.418383
2022-09-15T01:02:03.086Z,9.418332
2022-09-15T01:03:03.036Z,9.418339
2022-09-15T01:04:03.008Z,9.418319
2022-09-15T01:05:03.017Z,9.418363
2022-09-15T01:06:02.995Z,9.418336
2022-09-15T01:07:03.007Z,9.418303
2022-09-15T01:08:02.984Z,9.418310
2022-09-15T01:09:02.976Z,9.418333
2022-09-15T01:10:02.980Z,9.418357
2022-09-15T01:11:02.963Z,9.418347
2022-09-15T01:12:02.988Z,9.418302
2022-09-15T01:13:02.947Z,9.418283
2022-09-15T01:14:02.935Z,9.418324
2022-09-15T01:15:02.929Z,9.418270
2022-09-15T01:16:02.963Z,9.418273
2022-09-15T01:17:02.935Z,9.418283
2022-09-15T01:18:02.923Z,9.418301
2022-09-15T01:19:02.917Z,9.418314
2022-09-15T01:20:02.900Z,9.418262
2022-09-15T01:21:02.895Z,9.418243
2022-09-15T01:22:02.901Z,9.418232
2022-09-15T01:23:02.890Z,9.418185
2022-09-15T01:24:02.875Z,9.418188
2022-09-15T01:25:02.867Z,9.418365
2022-09-15T01:26:02.855Z,9.418288
2022-09-15T01:27:18.466Z,9.418324
2022-09-15T01:28:04.858Z,9.418360
2022-09-15T01:29:02.826Z,9.418352
2022-09-15T01:30:02.836Z,9.418324
2022-09-15T01:31:02.826Z,9.418401
2022-09-15T01:32:02.827Z,9.418344
2022-09-15T01:33:02.827Z,9.418309
2022-09-15T01:34:02.807Z,9.418283
2022-09-15T01:35:02.799Z,9.418300
2022-09-15T01:36:02.781Z,9.418264
2022-09-15T01:37:02.783Z,9.418254
2022-09-15T01:38:02.776Z,9.418228
2022-09-15T01:39:02.779Z,9.418214
2022-09-15T01:40:02.815Z,9.418201
2022-09-15T01:41:02.751Z,9.418227
2022-09-15T01:42:02.743Z,9.418239
2022-09-15T01:43:02.759Z,9.418292
2022-09-15T01:44:02.734Z,9.418272
2022-09-15T01:45:02.723Z,9.418232
2022-09-15T01:46:02.781Z,9.418332
2022-09-15T01:47:02.715Z,9.418437
2022-09-15T01:48:02.707Z,9.418352
2022-09-15T01:49:02.710Z,9.418220
2022-09-15T01:50:02.703Z,9.418142
2022-09-15T01:51:02.695Z,9.418176
2022-09-15T01:52:02.686Z,9.418225
2022-09-15T01:53:02.670Z,9.418275
2022-09-15T01:54:02.702Z,9.418310
2022-09-15T01:55:02.669Z,9.418466
2022-09-15T01:56:02.646Z,9.418286
2022-09-15T01:57:02.649Z,9.418295
2022-09-15T01:58:02.642Z,9.418265
2022-09-15T01:59:02.630Z,9.418246
2022-09-15T02:00:03.625Z,9.418287
2022-09-15T02:01:02.711Z,9.418261
2022-09-15T02:02:02.662Z,9.418244
2022-09-15T02:03:02.607Z,9.418205
2022-09-15T02:04:02.600Z,9.418172
2022-09-15T02:05:02.610Z,9.418268
2022-09-15T02:06:02.583Z,9.418275
2022-09-15T02:07:02.584Z,9.418397
2022-09-15T02:08:02.569Z,9.418451
2022-09-15T02:09:02.568Z,9.418655
2022-09-15T02:10:02.577Z,9.418554
2022-09-15T02:11:02.551Z,9.418376
2022-09-15T02:12:02.538Z,9.418290
2022-09-15T02:13:02.538Z,9.418293
2022-09-15T02:14:02.531Z,9.418313
2022-09-15T02:15:02.524Z,9.418316
2022-09-15T02:16:02.568Z,9.418324
2022-09-15T02:17:02.509Z,9.418258
2022-09-15T02:18:02.503Z,9.418285
2022-09-15T02:19:02.498Z,9.418303
2022-09-15T02:20:02.487Z,9.418288
2022-09-15T02:21:02.486Z,9.418322
2022-09-15T02:22:02.466Z,9.418282
2022-09-15T02:23:02.471Z,9.418277
2022-09-15T02:24:02.463Z,9.418275
2022-09-15T02:25:02.464Z,9.418407
2022-09-15T02:26:02.458Z,9.418359
2022-09-15T02:27:02.458Z,9.418405
2022-09-15T02:28:02.434Z,9.418344
2022-09-15T02:29:02.420Z,9.418366
2022-09-15T02:30:02.418Z,9.418340
2022-09-15T02:31:02.422Z,9.418339
2022-09-15T02:32:06.881Z,9.418310
2022-09-15T02:33:03.411Z,9.418336
2022-09-15T02:34:02.436Z,9.418381
2022-09-15T02:35:02.398Z,9.418276
2022-09-15T02:36:02.377Z,9.418277
2022-09-15T02:37:02.398Z,9.418314
2022-09-15T02:38:02.363Z,9.418315
2022-09-15T02:39:02.362Z,9.418238
2022-09-15T02:40:02.417Z,9.418321
2022-09-15T02:41:02.351Z,9.418353
2022-09-15T02:42:02.363Z,9.418386
2022-09-15T02:43:02.326Z,9.418382
2022-09-15T02:44:02.323Z,9.418347
2022-09-15T02:45:02.329Z,9.418197
2022-09-15T02:46:02.345Z,9.418324
2022-09-15T02:47:02.310Z,9.418338
2022-09-15T02:48:02.299Z,9.418312
2022-09-15T02:49:02.299Z,9.418319
2022-09-15T02:50:02.291Z,9.418272
2022-09-15T02:51:02.287Z,9.418386
2022-09-15T02:52:02.274Z,9.418284
2022-09-15T02:53:02.282Z,9.418274
2022-09-15T02:54:02.258Z,9.418482
2022-09-15T02:55:02.249Z,9.418488
2022-09-15T02:56:02.238Z,9.418506
2022-09-15T02:57:02.234Z,9.418511
2022-09-15T02:58:02.246Z,9.418325
2022-09-15T02:59:02.227Z,9.418271
2022-09-15T03:00:02.210Z,9.418339
2022-09-15T03:01:02.256Z,9.418458
2022-09-15T03:02:02.248Z,9.418468
2022-09-15T03:03:02.191Z,9.418418
2022-09-15T03:04:02.197Z,9.418434
2022-09-15T03:05:02.182Z,9.418863
2022-09-15T03:06:02.174Z,9.418846
2022-09-15T03:07:02.157Z,9.419842
2022-09-15T03:08:02.155Z,9.420480
2022-09-15T03:09:02.163Z,9.419233
2022-09-15T03:10:02.151Z,9.419029
2022-09-15T03:11:02.157Z,9.418793
2022-09-15T03:12:02.134Z,9.418605
2022-09-15T03:13:02.116Z,9.418426
2022-09-15T03:14:02.118Z,9.418687
2022-09-15T03:15:02.126Z,9.418757
2022-09-15T03:16:02.142Z,9.418416
2022-09-15T03:17:02.098Z,9.418226
2022-09-15T03:18:02.096Z,9.418319
2022-09-15T03:19:02.131Z,9.418307
2022-09-15T03:20:02.087Z,9.418317
2022-09-15T03:21:02.069Z,9.418202
2022-09-15T03:22:02.045Z,9.418379
2022-09-15T03:23:02.042Z,9.418354
2022-09-15T03:24:02.070Z,9.418309
2022-09-15T03:25:02.046Z,9.418353
2022-09-15T03:26:02.045Z,9.418349
2022-09-15T03:27:02.026Z,9.418460
2022-09-15T03:28:02.019Z,9.418441
2022-09-15T03:29:02.022Z,9.418307
2022-09-15T03:30:02.006Z,9.418541
2022-09-15T03:31:01.992Z,9.418865
2022-09-15T03:32:01.990Z,9.418550
2022-09-15T03:33:01.994Z,9.418510
2022-09-15T03:34:01.982Z,9.418365
2022-09-15T03:35:02.060Z,9.418278
2022-09-15T03:36:01.993Z,9.418226
2022-09-15T03:37:01.958Z,9.418314
2022-09-15T03:38:01.945Z,9.418300
2022-09-15T03:39:01.942Z,9.418146
2022-09-15T03:40:01.993Z,9.418219
2022-09-15T03:41:01.926Z,9.418113
2022-09-15T03:42:01.921Z,9.418291
2022-09-15T03:43:01.914Z,9.418526
2022-09-15T03:44:01.898Z,9.418262
2022-09-15T03:45:01.901Z,9.418238
2022-09-15T03:46:01.977Z,9.418231
2022-09-15T03:47:01.881Z,9.418078
2022-09-15T03:48:01.878Z,9.418148
2022-09-15T03:49:01.869Z,9.418253
2022-09-15T03:50:01.868Z,9.418280
2022-09-15T03:51:01.870Z,9.418243
2022-09-15T03:52:01.833Z,9.418438
2022-09-15T03:53:02.837Z,9.418229
2022-09-15T03:54:01.834Z,9.418136
2022-09-15T03:55:01.836Z,9.418108
2022-09-15T03:56:01.839Z,9.418147
2022-09-15T03:57:01.806Z,9.418232
2022-09-15T03:58:01.805Z,9.418200
2022-09-15T03:59:01.818Z,9.418309
2022-09-15T04:00:01.788Z,9.418707
2022-09-15T04:01:01.826Z,9.418435
2022-09-15T04:02:01.833Z,9.418037
2022-09-15T04:03:01.759Z,9.418207
2022-09-15T04:04:01.767Z,9.418253
2022-09-15T04:05:01.760Z,9.418231
2022-09-15T04:06:01.745Z,9.418152
2022-09-15T04:07:01.753Z,9.418191
2022-09-15T04:08:01.730Z,9.418252
2022-09-15T04:09:01.722Z,9.418021
2022-09-15T04:10:01.726Z,9.417982
2022-09-15T04:11:01.710Z,9.418234
2022-09-15T04:12:01.725Z,9.418196
2022-09-15T04:13:01.694Z,9.418379
2022-09-15T04:14:01.686Z,9.418162
2022-09-15T04:15:01.682Z,9.418150
2022-09-15T04:16:01.710Z,9.418159
2022-09-15T04:17:01.669Z,9.418143
2022-09-15T04:18:01.650Z,9.418202
2022-09-15T04:19:01.654Z,9.418221
2022-09-15T04:20:01.642Z,9.418197
2022-09-15T04:21:01.641Z,9.418272
2022-09-15T04:22:01.718Z,9.418274
2022-09-15T04:23:01.619Z,9.418184
2022-09-15T04:24:01.613Z,9.418182
2022-09-15T04:25:01.609Z,9.418144
2022-09-15T04:26:01.594Z,9.418209
2022-09-15T04:27:01.596Z,9.418275
2022-09-15T04:28:01.596Z,9.418115
2022-09-15T04:29:04.264Z,9.418404
2022-09-15T04:30:02.581Z,9.418421
2022-09-15T04:31:02.612Z,9.418256
2022-09-15T04:32:01.555Z,9.418071
2022-09-15T04:33:01.565Z,9.418252
2022-09-15T04:34:01.537Z,9.418380
2022-09-15T04:35:01.526Z,9.418275
2022-09-15T04:36:01.517Z,9.418579
2022-09-15T04:37:01.510Z,9.418416
2022-09-15T04:38:01.527Z,9.418321
2022-09-15T04:39:01.507Z,9.418155
2022-09-15T04:40:01.542Z,9.418155
2022-09-15T04:41:01.481Z,9.418220
2022-09-15T04:42:01.473Z,9.418216
2022-09-15T04:43:01.480Z,9.418205
2022-09-15T04:44:01.480Z,9.418253
2022-09-15T04:45:01.457Z,9.418253
2022-09-15T04:46:01.457Z,9.418215
2022-09-15T04:47:01.516Z,9.418238
2022-09-15T04:48:01.445Z,9.418258
2022-09-15T04:49:01.445Z,9.418237
2022-09-15T04:50:01.416Z,9.418245
2022-09-15T04:51:01.424Z,9.418220
2022-09-15T04:52:01.425Z,9.418219
2022-09-15T04:53:01.405Z,9.418233
2022-09-15T04:54:01.421Z,9.418248
2022-09-15T04:55:01.413Z,9.418234
2022-09-15T04:56:01.381Z,9.418214
2022-09-15T04:57:01.381Z,9.418248
2022-09-15T04:58:01.373Z,9.418240
2022-09-15T04:59:04.232Z,9.418236
2022-09-15T05:00:02.353Z,9.418207
2022-09-15T05:01:01.412Z,9.418212
2022-09-15T05:02:01.407Z,9.418215
2022-09-15T05:03:01.333Z,9.418246
2022-09-15T05:04:01.342Z,9.418210
2022-09-15T05:05:01.334Z,9.418179
2022-09-15T05:06:01.308Z,9.418207
2022-09-15T05:07:01.304Z,9.418135
2022-09-15T05:08:01.293Z,9.418151
2022-09-15T05:09:01.287Z,9.418272
2022-09-15T05:10:01.313Z,9.418346
2022-09-15T05:11:01.265Z,9.418396
2022-09-15T05:12:01.278Z,9.418467
2022-09-15T05:13:01.266Z,9.418448
2022-09-15T05:14:01.251Z,9.418298
2022-09-15T05:15:01.257Z,9.418348
2022-09-15T05:16:01.334Z,9.418308
2022-09-15T05:17:01.240Z,9.418356
2022-09-15T05:18:01.225Z,9.418350
2022-09-15T05:19:01.234Z,9.418405
2022-09-15T05:20:01.232Z,9.418373
2022-09-15T05:21:01.228Z,9.418322
2022-09-15T05:22:01.207Z,9.418292
2022-09-15T05:23:01.193Z,9.418299
2022-09-15T05:24:01.189Z,9.418246
2022-09-15T05:25:01.180Z,9.418263
2022-09-15T05:26:01.199Z,9.418360
2022-09-15T05:27:01.165Z,9.418390
2022-09-15T05:28:01.157Z,9.418382
2022-09-15T05:29:01.145Z,9.418450
2022-09-15T05:30:31.959Z,9.418391
2022-09-15T05:31:03.240Z,9.418288
2022-09-15T05:32:01.153Z,9.418267
2022-09-15T05:33:01.125Z,9.418283
2022-09-15T05:34:01.126Z,9.418313
2022-09-15T05:35:01.121Z,9.418335
2022-09-15T05:36:01.099Z,9.418376
2022-09-15T05:37:01.111Z,9.418391
2022-09-15T05:38:01.085Z,9.418365
2022-09-15T05:39:01.088Z,9.418292
2022-09-15T05:40:03.257Z,9.418263
2022-09-15T05:41:02.061Z,9.418262
2022-09-15T05:42:01.087Z,9.418312
2022-09-15T05:43:01.066Z,9.418294
2022-09-15T05:44:01.049Z,9.418374
2022-09-15T05:45:01.036Z,9.418399
2022-09-15T05:46:02.246Z,9.418326
2022-09-15T05:47:01.110Z,9.418318
2022-09-15T05:48:01.017Z,9.418276
2022-09-15T05:49:01.012Z,9.418265
2022-09-15T05:50:01.017Z,9.418279
2022-09-15T05:51:00.993Z,9.418303
2022-09-15T05:52:00.985Z,9.418286
2022-09-15T05:53:01.983Z,9.418167
2022-09-15T05:54:00.968Z,9.418237
2022-09-15T05:55:00.960Z,9.418236
2022-09-15T05:56:00.948Z,9.418230
2022-09-15T05:57:00.945Z,9.418248
2022-09-15T05:58:00.969Z,9.418264
2022-09-15T05:59:00.939Z,9.418208
2022-09-15T06:00:00.949Z,9.418212
2022-09-15T06:01:00.921Z,9.418220
2022-09-15T06:02:00.988Z,9.418264
2022-09-15T06:03:01.005Z,9.418228
2022-09-15T06:04:00.900Z,9.418140
2022-09-15T06:05:00.902Z,9.418129
2022-09-15T06:06:00.977Z,9.418235
2022-09-15T06:07:00.874Z,9.418227
2022-09-15T06:08:00.862Z,9.418243
2022-09-15T06:09:01.207Z,9.418250
2022-09-15T06:10:00.852Z,9.418292
2022-09-15T06:11:00.840Z,9.418349
2022-09-15T06:12:00.836Z,9.418262
2022-09-15T06:13:00.857Z,9.418177
2022-09-15T06:14:00.845Z,9.418180
2022-09-15T06:15:00.807Z,9.418200
2022-09-15T06:16:00.909Z,9.418205
2022-09-15T06:17:00.800Z,9.418081
2022-09-15T06:18:00.812Z,9.418064
2022-09-15T06:19:00.784Z,9.418173
2022-09-15T06:20:00.848Z,9.418181
2022-09-15T06:21:00.764Z,9.418270
2022-09-15T06:22:00.756Z,9.418189
2022-09-15T06:23:00.817Z,9.418190
2022-09-15T06:24:00.768Z,9.418165
2022-09-15T06:25:00.739Z,9.418323
2022-09-15T06:26:00.732Z,9.418381
2022-09-15T06:27:00.724Z,9.418313
2022-09-15T06:28:00.712Z,9.418205
2022-09-15T06:29:00.696Z,9.418094
2022-09-15T06:30:00.700Z,9.418154
2022-09-15T06:31:00.684Z,9.418198
2022-09-15T06:32:00.769Z,9.418215
2022-09-15T06:33:00.684Z,9.418195
2022-09-15T06:34:00.666Z,9.418163
2022-09-15T06:35:00.664Z,9.418162
2022-09-15T06:36:00.654Z,9.418163
2022-09-15T06:37:00.636Z,9.418227
2022-09-15T06:38:00.667Z,9.418187
2022-09-15T06:39:00.628Z,9.418294
2022-09-15T06:40:00.639Z,9.418317
2022-09-15T06:41:00.610Z,9.418310
2022-09-15T06:42:03.222Z,9.418287
2022-09-15T06:43:01.600Z,9.418239
2022-09-15T06:44:00.592Z,9.418235
2022-09-15T06:45:00.581Z,9.418264
2022-09-15T06:46:00.606Z,9.418200
2022-09-15T06:47:00.588Z,9.418275
2022-09-15T06:48:22.960Z,9.418283
2022-09-15T06:49:02.557Z,9.418195
2022-09-15T06:50:00.577Z,9.418256
2022-09-15T06:51:00.536Z,9.418303
2022-09-15T06:52:00.527Z,9.418307
2022-09-15T06:53:00.523Z,9.418264
2022-09-15T06:54:00.518Z,9.418344
2022-09-15T06:55:00.523Z,9.418328
2022-09-15T06:56:00.504Z,9.418294
2022-09-15T06:57:00.495Z,9.418347
2022-09-15T06:58:00.491Z,9.418232
2022-09-15T06:59:00.476Z,9.418244
2022-09-15T07:00:00.491Z,9.418183
2022-09-15T07:01:00.468Z,9.418199
2022-09-15T07:02:04.873Z,9.418127
2022-09-15T07:03:01.577Z,9.418260
2022-09-15T07:04:00.448Z,9.418222
2022-09-15T07:05:00.440Z,9.418295
2022-09-15T07:06:00.446Z,9.418392
2022-09-15T07:07:00.419Z,9.418356
2022-09-15T07:08:00.415Z,9.418331
2022-09-15T07:09:00.403Z,9.418263
2022-09-15T07:10:00.403Z,9.418279
2022-09-15T07:11:00.407Z,9.418292
2022-09-15T07:12:00.388Z,9.418305
2022-09-15T07:13:00.383Z,9.418308
2022-09-15T07:14:00.371Z,9.418321
2022-09-15T07:15:00.359Z,9.418242
2022-09-15T07:16:00.424Z,9.418254
2022-09-15T07:17:00.399Z,9.418234
2022-09-15T07:18:00.332Z,9.418215
2022-09-15T07:19:00.333Z,9.418255
2022-09-15T07:20:00.327Z,9.418266
2022-09-15T07:21:00.334Z,9.418260
2022-09-15T07:22:00.316Z,9.418283
2022-09-15T07:23:00.298Z,9.418287
2022-09-15T07:24:05.013Z,9.418261
2022-09-15T07:25:02.293Z,9.418352
2022-09-15T07:26:00.283Z,9.418323
2022-09-15T07:27:00.292Z,9.418306
2022-09-15T07:28:00.276Z,9.418306
2022-09-15T07:29:00.264Z,9.418292
2022-09-15T07:30:00.255Z,9.418287
2022-09-15T07:31:00.266Z,9.418316
2022-09-15T07:32:00.290Z,9.418343
2022-09-15T07:33:00.225Z,9.418322
2022-09-15T07:34:00.227Z,9.418363
2022-09-15T07:35:00.223Z,9.418312
2022-09-15T07:36:00.219Z,9.418322
2022-09-15T07:37:00.223Z,9.418296
2022-09-15T07:38:00.195Z,9.418276
2022-09-15T07:39:00.200Z,9.418289
2022-09-15T07:40:00.324Z,9.418325
2022-09-15T07:41:00.176Z,9.418443
2022-09-15T07:42:00.194Z,9.418385
2022-09-15T07:43:00.166Z,9.418338
2022-09-15T07:44:00.159Z,9.418303
2022-09-15T07:45:00.161Z,9.418339
2022-09-15T07:46:00.243Z,9.418284
2022-09-15T07:47:00.143Z,9.418344
2022-09-15T07:48:00.126Z,9.418366
2022-09-15T07:49:00.126Z,9.418346
2022-09-15T07:50:00.173Z,9.418310
2022-09-15T07:51:00.166Z,9.418307
2022-09-15T07:52:00.119Z,9.418295
2022-09-15T07:53:00.101Z,9.418365
2022-09-15T07:54:00.093Z,9.418337
2022-09-15T07:55:00.087Z,9.418343
2022-09-15T07:56:00.077Z,9.418300
2022-09-15T07:57:00.087Z,9.418250
2022-09-15T07:58:00.073Z,9.418307
2022-09-15T07:59:00.052Z,9.418283
2022-09-15T08:00:00.055Z,9.418301
2022-09-15T08:01:00.115Z,9.418297
2022-09-15T08:02:00.121Z,9.418231
2022-09-15T08:03:00.030Z,9.418280
2022-09-15T08:04:00.029Z,9.418285
2022-09-15T08:05:00.007Z,9.418307
2022-09-15T08:06:00.013Z,9.418348
2022-09-15T08:07:00.011Z,9.418299
2022-09-15T08:07:59.991Z,9.418301
2022-09-15T08:09:01.080Z,9.418299
2022-09-15T08:10:00.979Z,9.418280
2022-09-15T08:11:00.846Z,9.418307
2022-09-15T08:11:59.976Z,9.418244
2022-09-15T08:12:59.956Z,9.418323
2022-09-15T08:13:59.985Z,9.418295
2022-09-15T08:14:59.948Z,9.418270
2022-09-15T08:15:59.971Z,9.418257
2022-09-15T08:16:59.936Z,9.418195
2022-09-15T08:17:59.927Z,9.418259
2022-09-15T08:18:59.915Z,9.418218
2022-09-15T08:19:59.920Z,9.418180
2022-09-15T08:20:59.914Z,9.418399
2022-09-15T08:21:59.921Z,9.418345
2022-09-15T08:22:59.894Z,9.418315
2022-09-15T08:23:59.878Z,9.418354
2022-09-15T08:24:59.895Z,9.418357
2022-09-15T08:25:59.867Z,9.418394
2022-09-15T08:26:59.882Z,9.418299
2022-09-15T08:27:59.862Z,9.418313
2022-09-15T08:28:59.863Z,9.418297
2022-09-15T08:29:59.831Z,9.418364
2022-09-15T08:31:00.878Z,9.418420
2022-09-15T08:31:59.846Z,9.418351
2022-09-15T08:32:59.827Z,9.418271
2022-09-15T08:33:59.819Z,9.418392
2022-09-15T08:34:59.824Z,9.418316
2022-09-15T08:35:59.804Z,9.418256
2022-09-15T08:36:59.799Z,9.418304
2022-09-15T08:37:59.828Z,9.418303
2022-09-15T08:38:59.783Z,9.418263
2022-09-15T08:39:59.814Z,9.418315
2022-09-15T08:40:59.782Z,9.418290
2022-09-15T08:41:59.790Z,9.418323
2022-09-15T08:42:59.817Z,9.418317
2022-09-15T08:43:59.762Z,9.418308
2022-09-15T08:44:59.742Z,9.418341
2022-09-15T08:45:59.815Z,9.418307
2022-09-15T08:46:59.747Z,9.418326
2022-09-15T08:47:59.722Z,9.418327
2022-09-15T08:49:02.971Z,9.418405
2022-09-15T08:50:00.721Z,9.418422
2022-09-15T08:50:59.707Z,9.418315
2022-09-15T08:51:59.696Z,9.418357
2022-09-15T08:52:59.695Z,9.418322
2022-09-15T08:53:59.758Z,9.418432
2022-09-15T08:54:59.674Z,9.418353
2022-09-15T08:55:59.671Z,9.418332
2022-09-15T08:56:59.658Z,9.418347
2022-09-15T08:57:59.655Z,9.418372
2022-09-15T08:58:59.663Z,9.418315
2022-09-15T08:59:59.665Z,9.418257
2022-09-15T09:00:59.639Z,9.418329
2022-09-15T09:01:59.696Z,9.418297
2022-09-15T09:02:59.771Z,9.418371
2022-09-15T09:03:59.627Z,9.418425
2022-09-15T09:04:59.614Z,9.418450
2022-09-15T09:05:59.602Z,9.418393
2022-09-15T09:06:59.594Z,9.418283
2022-09-15T09:07:59.595Z,9.418228
2022-09-15T09:08:59.606Z,9.418245
2022-09-15T09:09:59.574Z,9.418422
2022-09-15T09:10:59.571Z,9.418596
2022-09-15T09:11:59.566Z,9.418493
2022-09-15T09:12:59.591Z,9.418406
2022-09-15T09:13:59.559Z,9.418380
2022-09-15T09:14:59.555Z,9.418339
2022-09-15T09:15:59.586Z,9.418335
2022-09-15T09:16:59.527Z,9.418296
2022-09-15T09:17:59.526Z,9.418281
2022-09-15T09:18:59.518Z,9.418344
2022-09-15T09:19:59.570Z,9.418354
2022-09-15T09:20:59.505Z,9.418281
2022-09-15T09:21:59.499Z,9.418303
2022-09-15T09:22:59.486Z,9.418275
2022-09-15T09:23:59.490Z,9.418343
2022-09-15T09:24:59.490Z,9.418252
2022-09-15T09:25:59.467Z,9.418326
2022-09-15T09:26:59.454Z,9.418334
2022-09-15T09:27:59.450Z,9.418300
2022-09-15T09:28:59.439Z,9.418210
2022-09-15T09:29:59.443Z,9.418292
2022-09-15T09:30:59.528Z,9.418388
2022-09-15T09:31:59.420Z,9.418406
2022-09-15T09:32:59.422Z,9.418410
2022-09-15T09:33:59.406Z,9.418405
2022-09-15T09:34:59.410Z,9.418350
2022-09-15T09:35:59.402Z,9.418299
2022-09-15T09:36:59.379Z,9.418376
2022-09-15T09:37:59.377Z,9.418285
2022-09-15T09:38:59.410Z,9.418317
2022-09-15T09:39:59.466Z,9.418310
2022-09-15T09:41:02.268Z,9.418293
2022-09-15T09:42:00.343Z,9.418226
2022-09-15T09:43:00.346Z,9.418366
2022-09-15T09:43:59.347Z,9.418268
2022-09-15T09:44:59.336Z,9.418344
2022-09-15T09:45:59.436Z,9.418406
2022-09-15T09:46:59.325Z,9.418465
2022-09-15T09:48:01.616Z,9.418350
2022-09-15T09:49:00.308Z,9.418237
2022-09-15T09:49:59.303Z,9.418301
2022-09-15T09:50:59.364Z,9.418235
2022-09-15T09:51:59.278Z,9.418264
2022-09-15T09:52:59.286Z,9.418247
2022-09-15T09:53:59.274Z,9.418267
2022-09-15T09:54:59.272Z,9.418385
2022-09-15T09:55:59.281Z,9.418395
2022-09-15T09:56:59.250Z,9.418335
2022-09-15T09:57:59.266Z,9.418055
2022-09-15T09:58:59.251Z,9.418221
2022-09-15T09:59:59.231Z,9.418238
2022-09-15T10:00:59.348Z,9.418231
2022-09-15T10:01:59.230Z,9.418319
2022-09-15T10:02:59.238Z,9.418283
2022-09-15T10:03:59.206Z,9.418358
2022-09-15T10:04:59.264Z,9.418394
2022-09-15T10:05:59.189Z,9.418323
2022-09-15T10:06:59.195Z,9.418337
2022-09-15T10:07:59.222Z,9.418413
2022-09-15T10:08:59.166Z,9.418343
2022-09-15T10:09:59.162Z,9.418381
2022-09-15T10:10:59.158Z,9.418295
2022-09-15T10:11:59.140Z,9.418301
2022-09-15T10:12:59.162Z,9.418210
2022-09-15T10:13:59.133Z,9.418269
2022-09-15T10:14:59.113Z,9.418345
2022-09-15T10:15:59.138Z,9.418257
2022-09-15T10:16:59.131Z,9.418183
2022-09-15T10:17:59.109Z,9.418321
2022-09-15T10:18:59.115Z,9.418312
2022-09-15T10:19:59.090Z,9.418386
2022-09-15T10:20:59.069Z,9.418306
2022-09-15T10:21:59.076Z,9.418317
2022-09-15T10:22:59.066Z,9.418253
2022-09-15T10:23:59.070Z,9.418328
2022-09-15T10:24:59.073Z,9.418341
2022-09-15T10:26:00.379Z,9.418296
2022-09-15T10:27:00.038Z,9.418293
2022-09-15T10:27:59.042Z,9.418325
2022-09-15T10:28:59.043Z,9.418392
2022-09-15T10:29:59.018Z,9.418409
2022-09-15T10:30:59.009Z,9.418307
2022-09-15T10:31:59.096Z,9.418271
2022-09-15T10:32:58.996Z,9.418371
2022-09-15T10:33:58.991Z,9.418366
2022-09-15T10:34:59.008Z,9.418284
2022-09-15T10:35:58.979Z,9.418290
2022-09-15T10:36:58.973Z,9.418364
2022-09-15T10:37:58.969Z,9.418335
2022-09-15T10:38:58.954Z,9.418281
2022-09-15T10:39:59.041Z,9.418190
2022-09-15T10:40:58.942Z,9.418261
2022-09-15T10:41:58.969Z,9.418268
2022-09-15T10:42:58.950Z,9.418310
2022-09-15T10:43:58.933Z,9.418398
2022-09-15T10:44:58.946Z,9.418393
2022-09-15T10:45:58.938Z,9.418378
2022-09-15T10:46:58.912Z,9.418417
2022-09-15T10:47:58.893Z,9.418339
2022-09-15T10:48:58.885Z,9.418317
2022-09-15T10:49:58.877Z,9.418272
2022-09-15T10:50:58.885Z,9.418299
2022-09-15T10:51:58.870Z,9.418235
2022-09-15T10:52:58.858Z,9.418287
2022-09-15T10:53:58.969Z,9.418243
2022-09-15T10:54:58.854Z,9.418194
2022-09-15T10:55:58.837Z,9.418233
2022-09-15T10:56:58.836Z,9.418283
2022-09-15T10:57:58.825Z,9.418330
2022-09-15T10:58:58.828Z,9.418449
2022-09-15T10:59:58.813Z,9.418336
2022-09-15T11:00:58.903Z,9.418271
2022-09-15T11:01:58.852Z,9.418359
2022-09-15T11:02:58.791Z,9.418329
2022-09-15T11:03:58.793Z,9.418310
2022-09-15T11:04:58.778Z,9.418330
2022-09-15T11:05:58.783Z,9.418302
2022-09-15T11:06:58.745Z,9.418234
2022-09-15T11:07:58.761Z,9.418201
2022-09-15T11:08:58.758Z,9.418228
2022-09-15T11:09:58.749Z,9.418244
2022-09-15T11:10:58.749Z,9.418296
2022-09-15T11:11:58.730Z,9.418264
2022-09-15T11:12:58.722Z,9.418244
2022-09-15T11:13:58.707Z,9.418299
2022-09-15T11:14:58.712Z,9.418249
2022-09-15T11:15:58.730Z,9.418221
2022-09-15T11:16:58.722Z,9.418108
2022-09-15T11:17:58.682Z,9.418189
2022-09-15T11:18:58.673Z,9.418167
2022-09-15T11:19:58.673Z,9.418247
2022-09-15T11:20:58.665Z,9.418337
2022-09-15T11:21:58.669Z,9.418385
2022-09-15T11:22:58.653Z,9.418413
2022-09-15T11:23:58.651Z,9.418371
2022-09-15T11:24:58.641Z,9.418345
2022-09-15T11:25:58.634Z,9.418423
2022-09-15T11:26:58.625Z,9.418366
2022-09-15T11:27:58.642Z,9.418331
2022-09-15T11:28:58.609Z,9.418382
2022-09-15T11:29:58.605Z,9.418391
2022-09-15T11:30:58.617Z,9.418406
2022-09-15T11:31:58.678Z,9.418326
2022-09-15T11:32:58.604Z,9.418337
2022-09-15T11:33:58.568Z,9.418269
2022-09-15T11:34:58.577Z,9.418276
2022-09-15T11:35:58.681Z,9.418235
2022-09-15T11:36:58.557Z,9.418235
2022-09-15T11:37:58.552Z,9.418316
2022-09-15T11:38:58.565Z,9.418413
2022-09-15T11:39:58.576Z,9.418181
2022-09-15T11:40:58.583Z,9.418277
2022-09-15T11:41:58.525Z,9.418374
2022-09-15T11:42:58.557Z,9.418218
2022-09-15T11:43:58.569Z,9.418165